createdAt,value
2022-08-09T00:00:06.157Z,70.00
2022-08-09T00:02:49.259Z,70.30
2022-08-09T00:06:18.564Z,70.60
2022-08-09T00:08:13.106Z,70.90
2022-08-09T00:10:59.953Z,70.90
2022-08-09T00:13:28.395Z,71.00
2022-08-09T00:16:02.912Z,71.80
2022-08-09T00:18:34.824Z,71.10
2022-08-09T00:21:05.086Z,71.20
2022-08-09T00:23:57.513Z,71.20
2022-08-09T00:26:33.984Z,71.40
2022-08-09T00:29:12.339Z,71.60
2022-08-09T00:32:00.919Z,72.10
2022-08-09T00:34:32.583Z,72.10
2022-08-09T00:37:04.287Z,72.10
2022-08-09T00:40:12.113Z,72.10
2022-08-09T00:44:15.309Z,72.10
2022-08-09T00:45:16.075Z,72.10
2022-08-09T00:47:44.189Z,72.30
2022-08-09T00:50:14.637Z,72.40
2022-08-09T00:52:44.147Z,72.40
2022-08-09T00:55:32.741Z,72.40
2022-08-09T00:58:02.920Z,72.50
2022-08-09T01:00:35.348Z,72.40
2022-08-09T01:03:18.606Z,72.30
2022-08-09T01:05:54.138Z,72.30
2022-08-09T01:08:48.916Z,72.40
2022-08-09T01:11:26.304Z,72.70
2022-08-09T01:14:01.762Z,72.90
2022-08-09T01:16:49.562Z,73.10
2022-08-09T01:19:39.647Z,73.30
2022-08-09T01:22:45.047Z,73.10
2022-08-09T01:25:41.531Z,73.20
2022-08-09T01:28:11.393Z,73.20
2022-08-09T01:30:51.849Z,73.30
2022-08-09T01:33:25.609Z,73.30
2022-08-09T01:36:07.597Z,73.30
2022-08-09T01:38:44.327Z,73.40
2022-08-09T01:41:25.857Z,73.60
2022-08-09T01:43:57.949Z,73.80
2022-08-09T01:46:29.431Z,73.80
2022-08-09T01:49:10.078Z,73.90
2022-08-09T01:51:44.329Z,74.00
2022-08-09T01:54:23.429Z,74.20
2022-08-09T01:56:55.772Z,74.40
2022-08-09T01:59:24.712Z,74.50
2022-08-09T02:02:03.860Z,74.50
2022-08-09T02:04:33.863Z,75.40
2022-08-09T02:07:18.058Z,75.50
2022-08-09T02:10:07.104Z,75.10
2022-08-09T02:12:41.778Z,75.30
2022-08-09T02:15:16.887Z,75.40
2022-08-09T02:18:01.155Z,75.70
2022-08-09T02:20:44.035Z,75.90
2022-08-09T02:23:25.413Z,76.30
2022-08-09T02:26:05.174Z,76.70
2022-08-09T02:28:35.843Z,77.80
2022-08-09T02:31:12.701Z,78.30
2022-08-09T02:34:06.788Z,78.40
2022-08-09T02:36:41.985Z,78.60
2022-08-09T02:39:33.712Z,79.10
2022-08-09T02:42:08.318Z,79.30
2022-08-09T02:44:38.666Z,79.50
2022-08-09T02:47:09.794Z,79.40
2022-08-09T02:49:55.417Z,79.40
2022-08-09T02:52:40.446Z,79.30
2022-08-09T02:55:15.207Z,79.30
2022-08-09T02:58:00.719Z,79.50
2022-08-09T03:00:47.982Z,79.60
2022-08-09T03:04:12.551Z,79.50
2022-08-09T03:06:18.586Z,79.40
2022-08-09T03:08:51.012Z,79.60
2022-08-09T03:12:04.649Z,79.80
2022-08-09T03:14:11.912Z,79.80
2022-08-09T03:16:45.309Z,80.00
2022-08-09T03:19:59.001Z,80.00
2022-08-09T03:22:12.188Z,80.10
2022-08-09T03:25:06.503Z,80.20
2022-08-09T03:27:47.109Z,80.20
2022-08-09T03:30:29.351Z,80.10
2022-08-09T03:33:05.546Z,80.00
2022-08-09T03:36:11.699Z,80.00
2022-08-09T03:38:28.660Z,80.10
2022-08-09T03:40:58.451Z,80.20
2022-08-09T03:43:32.018Z,80.30
2022-08-09T03:46:03.328Z,80.40
2022-08-09T03:48:51.452Z,80.40
2022-08-09T03:51:56.535Z,80.60
2022-08-09T03:54:11.593Z,80.80
2022-08-09T03:56:41.873Z,80.80
2022-08-09T03:59:27.096Z,80.90
2022-08-09T04:01:59.283Z,81.30
2022-08-09T04:04:32.533Z,81.40
2022-08-09T04:07:08.669Z,81.50
2022-08-09T04:09:48.214Z,81.60
2022-08-09T04:12:33.012Z,81.70
2022-08-09T04:15:11.166Z,81.90
2022-08-09T04:17:43.646Z,81.90
2022-08-09T04:20:13.152Z,82.70
2022-08-09T04:22:44.191Z,83.30
2022-08-09T04:25:13.752Z,84.00
2022-08-09T04:27:42.228Z,85.00
2022-08-09T04:30:23.311Z,85.20
2022-08-09T04:32:54.083Z,85.70
2022-08-09T04:35:21.805Z,85.70
2022-08-09T04:37:50.164Z,85.80
2022-08-09T04:40:28.897Z,85.90
2022-08-09T04:43:06.899Z,85.70
2022-08-09T04:45:36.260Z,85.60
2022-08-09T04:48:21.163Z,85.60
2022-08-09T04:50:50.904Z,85.50
2022-08-09T04:53:18.441Z,85.60
2022-08-09T04:55:57.426Z,85.70
2022-08-09T04:58:31.733Z,85.70
2022-08-09T05:01:03.674Z,85.60
2022-08-09T05:03:44.194Z,85.50
2022-08-09T05:06:26.827Z,85.30
2022-08-09T05:09:00.310Z,85.20
2022-08-09T05:11:35.481Z,84.90
2022-08-09T05:14:09.557Z,84.80
2022-08-09T05:16:58.215Z,84.60
2022-08-09T05:19:31.926Z,84.20
2022-08-09T05:22:28.280Z,83.80
2022-08-09T05:25:02.938Z,83.90
2022-08-09T05:27:30.248Z,84.00
2022-08-09T05:29:58.953Z,84.10
2022-08-09T05:32:30.099Z,84.00
2022-08-09T05:34:57.567Z,83.80
2022-08-09T05:37:26.385Z,83.80
2022-08-09T05:39:54.795Z,83.60
2022-08-09T05:42:28.060Z,83.40
2022-08-09T05:44:56.711Z,83.10
2022-08-09T05:47:27.150Z,82.70
2022-08-09T05:50:24.135Z,82.20
2022-08-09T05:52:53.323Z,82.10
2022-08-09T05:55:24.014Z,81.20
2022-08-09T05:57:56.469Z,81.00
2022-08-09T06:00:29.826Z,80.90
2022-08-09T06:02:58.867Z,80.30
2022-08-09T06:05:31.362Z,79.90
2022-08-09T06:08:19.754Z,79.30
2022-08-09T06:10:56.230Z,78.20
2022-08-09T06:13:28.685Z,76.50
2022-08-09T06:16:01.678Z,75.20
2022-08-09T06:18:32.829Z,74.60
2022-08-09T06:21:01.504Z,74.00
2022-08-09T06:23:57.302Z,73.00
2022-08-09T06:26:22.140Z,72.80
2022-08-09T06:28:59.327Z,72.10
2022-08-09T06:31:31.579Z,71.40
2022-08-09T06:34:07.330Z,70.60
2022-08-09T06:36:35.002Z,69.90
2022-08-09T06:39:08.883Z,69.60
2022-08-09T06:42:07.821Z,69.00
2022-08-09T06:44:27.629Z,68.40
2022-08-09T06:46:55.641Z,68.10
2022-08-09T06:49:44.894Z,67.30
2022-08-09T06:52:15.651Z,66.80
2022-08-09T06:54:44.715Z,65.60
2022-08-09T06:57:12.142Z,64.80
2022-08-09T07:00:54.584Z,63.40
2022-08-09T07:02:34.018Z,62.20
2022-08-09T07:05:04.508Z,62.90
2022-08-09T07:08:00.361Z,62.60
2022-08-09T07:10:29.332Z,62.20
2022-08-09T07:12:58.353Z,61.20
2022-08-09T07:15:54.014Z,60.60
2022-08-09T07:18:15.162Z,61.10
2022-08-09T07:20:44.407Z,60.70
2022-08-09T07:23:18.147Z,60.60
2022-08-09T07:25:47.610Z,60.00
2022-08-09T07:28:26.349Z,59.70
2022-08-09T07:30:55.646Z,59.20
2022-08-09T07:33:23.278Z,58.40
2022-08-09T07:35:53.825Z,57.80
2022-08-09T07:38:23.263Z,56.90
2022-08-09T07:41:08.349Z,56.30
2022-08-09T07:43:41.057Z,55.70
2022-08-09T07:46:10.707Z,55.30
2022-08-09T07:48:44.572Z,55.50
2022-08-09T07:52:04.979Z,55.50
2022-08-09T07:54:08.702Z,55.20
2022-08-09T07:56:45.074Z,54.30
2022-08-09T07:59:25.426Z,53.40
2022-08-09T08:02:06.534Z,52.60
2022-08-09T08:04:34.311Z,52.50
2022-08-09T08:07:15.551Z,51.40
2022-08-09T08:09:54.935Z,51.60
2022-08-09T08:12:32.907Z,51.60
2022-08-09T08:15:00.318Z,51.90
2022-08-09T08:17:52.572Z,51.30
2022-08-09T08:20:15.696Z,50.60
2022-08-09T08:22:43.336Z,50.90
2022-08-09T08:25:15.783Z,51.40
2022-08-09T08:27:43.356Z,52.10
2022-08-09T08:30:18.547Z,52.40
2022-08-09T08:32:53.553Z,52.10
2022-08-09T08:35:22.305Z,52.20
2022-08-09T08:38:04.654Z,51.70
2022-08-09T08:40:38.750Z,51.00
2022-08-09T08:43:13.383Z,50.60
2022-08-09T08:46:04.111Z,50.90
2022-08-09T08:48:51.223Z,51.10
2022-08-09T08:51:23.112Z,50.90
2022-08-09T08:54:03.716Z,50.90
2022-08-09T08:56:39.596Z,51.20
2022-08-09T08:59:19.299Z,50.50
2022-08-09T09:01:52.953Z,49.90
2022-08-09T09:04:31.118Z,49.60
2022-08-09T09:07:09.121Z,50.40
2022-08-09T09:10:01.489Z,49.90
2022-08-09T09:12:32.050Z,49.80
2022-08-09T09:15:05.704Z,50.20
2022-08-09T09:17:48.331Z,50.20
2022-08-09T09:20:21.200Z,49.60
2022-08-09T09:23:01.594Z,50.00
2022-08-09T09:26:04.536Z,50.90
2022-08-09T09:29:01.670Z,49.90
2022-08-09T09:32:03.828Z,49.50
2022-08-09T09:34:14.205Z,49.10
2022-08-09T09:36:51.191Z,49.50
2022-08-09T09:39:55.093Z,47.10
2022-08-09T09:42:29.622Z,46.50
2022-08-09T09:44:59.220Z,44.30
2022-08-09T09:47:28.532Z,44.70
2022-08-09T09:50:14.333Z,44.10
2022-08-09T09:52:56.056Z,44.60
2022-08-09T09:55:32.175Z,44.90
2022-08-09T09:58:19.137Z,44.40
2022-08-09T10:00:52.671Z,44.40
2022-08-09T10:03:57.096Z,44.30
2022-08-09T10:06:42.638Z,43.50
2022-08-09T10:09:22.342Z,42.80
2022-08-09T10:12:07.701Z,42.80
2022-08-09T10:14:47.753Z,42.60
2022-08-09T10:17:39.427Z,42.20
2022-08-09T10:20:14.921Z,41.80
2022-08-09T10:22:45.062Z,42.50
2022-08-09T10:25:14.500Z,41.20
2022-08-09T10:27:56.141Z,41.30
2022-08-09T10:34:07.863Z,40.50
2022-08-09T10:36:04.888Z,41.90
2022-08-09T10:38:34.028Z,41.60
2022-08-09T10:41:20.593Z,42.50
2022-08-09T10:43:59.381Z,42.50
2022-08-09T10:46:54.720Z,41.50
2022-08-09T10:49:50.230Z,42.50
2022-08-09T10:52:46.268Z,40.60
2022-08-09T10:55:24.562Z,40.60
2022-08-09T10:57:55.632Z,40.10
2022-08-09T11:00:34.341Z,40.20
2022-08-09T11:03:19.531Z,40.30
2022-08-09T11:06:15.571Z,40.90
2022-08-09T11:08:51.119Z,40.20
2022-08-09T11:11:20.895Z,39.30
2022-08-09T11:14:28.067Z,39.40
2022-08-09T11:16:56.533Z,39.60
2022-08-09T11:20:10.263Z,39.20
2022-08-09T11:22:42.001Z,40.30
2022-08-09T11:25:15.658Z,39.50
2022-08-09T11:28:03.821Z,39.10
2022-08-09T11:30:38.065Z,40.10
2022-08-09T11:33:17.514Z,39.80
2022-08-09T11:35:51.729Z,40.40
2022-08-09T11:38:32.570Z,39.30
2022-08-09T11:41:16.595Z,39.70
2022-08-09T11:43:48.962Z,38.90
2022-08-09T11:46:26.784Z,39.30
2022-08-09T11:49:00.318Z,38.50
2022-08-09T11:53:02.395Z,37.00
2022-08-09T11:54:27.951Z,38.00
2022-08-09T11:57:47.668Z,38.50
2022-08-09T12:00:28.943Z,38.20
2022-08-09T12:02:57.965Z,37.50
2022-08-09T12:05:37.652Z,37.50
2022-08-09T12:08:12.572Z,37.70
2022-08-09T12:10:59.321Z,37.50
2022-08-09T12:14:10.013Z,37.70
2022-08-09T12:16:38.579Z,37.20
2022-08-09T12:19:09.589Z,37.70
2022-08-09T12:21:48.748Z,38.00
2022-08-09T12:24:25.270Z,38.50
2022-08-09T12:29:00.252Z,38.60
2022-08-09T12:30:00.018Z,39.30
2022-08-09T12:32:31.941Z,38.80
2022-08-09T12:35:04.729Z,39.40
2022-08-09T12:37:49.777Z,38.80
2022-08-09T12:40:19.248Z,37.70
2022-08-09T12:42:50.633Z,38.40
2022-08-09T12:45:34.899Z,38.60
2022-08-09T12:48:19.867Z,38.90
2022-08-09T12:50:59.237Z,38.90
2022-08-09T12:53:44.799Z,38.20
2022-08-09T12:56:39.382Z,37.40
2022-08-09T12:59:21.773Z,37.50
2022-08-09T13:02:09.416Z,37.00
2022-08-09T13:04:38.706Z,38.10
2022-08-09T13:07:19.816Z,38.30
2022-08-09T13:09:55.951Z,37.00
2022-08-09T13:12:29.281Z,37.60
2022-08-09T13:15:09.610Z,37.50
2022-08-09T13:18:03.545Z,37.30
2022-08-09T13:21:03.935Z,37.30
2022-08-09T13:24:17.507Z,37.50
2022-08-09T13:26:37.013Z,38.40
2022-08-09T13:29:17.548Z,38.40
2022-08-09T13:32:13.831Z,37.60
2022-08-09T13:34:47.314Z,38.30
2022-08-09T13:37:24.804Z,38.50
2022-08-09T13:41:50.973Z,37.60
2022-08-09T13:42:52.113Z,37.90
2022-08-09T13:45:20.204Z,38.10
2022-08-09T13:47:53.723Z,37.70
2022-08-09T13:50:30.282Z,37.70
2022-08-09T13:52:59.359Z,37.80
2022-08-09T13:55:30.648Z,38.50
2022-08-09T14:01:56.407Z,38.70
2022-08-09T14:04:31.055Z,38.90
2022-08-09T14:07:30.251Z,38.70
2022-08-09T14:10:53.396Z,37.80
2022-08-09T14:22:14.057Z,37.70
2022-08-09T14:27:24.489Z,37.70
2022-08-09T14:30:35.524Z,37.80
2022-08-09T14:32:41.649Z,37.70
2022-08-09T14:35:10.210Z,36.50
2022-08-09T14:38:01.564Z,37.00
2022-08-09T14:41:00.784Z,36.80
2022-08-09T14:43:18.521Z,37.00
2022-08-09T14:46:54.054Z,37.40
2022-08-09T14:48:33.311Z,37.10
2022-08-09T14:51:00.313Z,37.80
2022-08-09T14:53:27.465Z,37.20
2022-08-09T14:55:54.533Z,37.50
2022-08-09T14:58:21.814Z,37.30
2022-08-09T15:00:51.199Z,37.40
2022-08-09T15:03:20.914Z,37.70
2022-08-09T15:05:51.256Z,37.70
2022-08-09T15:08:23.660Z,37.60
2022-08-09T15:11:00.919Z,37.70
2022-08-09T15:13:47.865Z,38.30
2022-08-09T15:16:17.127Z,38.00
2022-08-09T15:18:44.338Z,37.80
2022-08-09T15:21:58.872Z,38.30
2022-08-09T15:24:12.395Z,39.00
2022-08-09T15:26:45.326Z,39.40
2022-08-09T15:30:56.077Z,39.10
2022-08-09T15:32:00.996Z,38.80
2022-08-09T15:34:34.755Z,38.90
2022-08-09T15:37:24.331Z,38.90
2022-08-09T15:40:11.745Z,39.30
2022-08-09T15:42:40.566Z,40.10
2022-08-09T15:45:15.406Z,40.80
2022-08-09T15:48:02.575Z,40.40
2022-08-09T15:50:39.227Z,40.40
2022-08-09T15:53:32.700Z,40.20
2022-08-09T15:56:21.538Z,40.90
2022-08-09T15:58:46.360Z,41.20
2022-08-09T16:01:14.649Z,41.60
2022-08-09T16:03:42.325Z,40.40
2022-08-09T16:06:27.230Z,40.80
2022-08-09T16:09:01.252Z,41.30
2022-08-09T16:11:30.742Z,41.80
2022-08-09T16:14:04.879Z,42.00
2022-08-09T16:16:32.974Z,42.10
2022-08-09T16:19:02.082Z,42.30
2022-08-09T16:21:31.518Z,42.60
2022-08-09T16:24:08.826Z,43.00
2022-08-09T16:26:48.929Z,43.50
2022-08-09T16:29:20.199Z,44.10
2022-08-09T16:32:17.663Z,43.60
2022-08-09T16:34:53.565Z,43.80
2022-08-09T16:37:53.811Z,43.90
2022-08-09T16:40:13.210Z,44.30
2022-08-09T16:42:45.563Z,44.20
2022-08-09T16:45:17.592Z,44.50
2022-08-09T16:48:41.703Z,45.40
2022-08-09T16:50:38.588Z,45.10
2022-08-09T16:53:06.543Z,45.40
2022-08-09T16:55:57.905Z,45.70
2022-08-09T16:58:24.639Z,45.90
2022-08-09T17:00:53.133Z,46.80
2022-08-09T17:03:22.796Z,46.30
2022-08-09T17:06:07.112Z,46.40
2022-08-09T17:08:58.994Z,45.30
2022-08-09T17:11:40.112Z,45.80
2022-08-09T17:14:26.193Z,46.10
2022-08-09T17:17:00.179Z,46.70
2022-08-09T17:20:06.074Z,47.30
2022-08-09T17:22:24.219Z,47.60
2022-08-09T17:24:54.894Z,47.70
2022-08-09T17:27:23.695Z,47.80
2022-08-09T17:29:51.444Z,47.90
2022-08-09T17:32:35.038Z,47.90
2022-08-09T17:35:11.242Z,48.20
2022-08-09T17:38:11.522Z,48.30
2022-08-09T17:40:28.076Z,48.30
2022-08-09T17:42:59.206Z,48.50
2022-08-09T17:46:01.560Z,48.60
2022-08-09T17:48:18.316Z,48.60
2022-08-09T17:50:59.311Z,48.70
2022-08-09T17:53:43.500Z,48.80
2022-08-09T17:56:18.172Z,49.30
2022-08-09T17:58:45.638Z,49.30
2022-08-09T18:01:22.138Z,49.30
2022-08-09T18:03:54.324Z,49.50
2022-08-09T18:06:32.495Z,49.50
2022-08-09T18:09:06.077Z,49.70
2022-08-09T18:12:05.409Z,49.80
2022-08-09T18:14:23.065Z,50.10
2022-08-09T18:16:51.055Z,50.20
2022-08-09T18:20:57.017Z,50.40
2022-08-09T18:22:16.899Z,51.20
2022-08-09T18:24:47.881Z,50.90
2022-08-09T18:27:49.068Z,50.90
2022-08-09T18:30:42.346Z,51.10
2022-08-09T18:32:54.619Z,51.40
2022-08-09T18:35:47.913Z,51.80
2022-08-09T18:38:11.761Z,51.90
2022-08-09T18:40:43.050Z,51.80
2022-08-09T18:43:12.919Z,52.00
2022-08-09T18:46:51.209Z,52.10
2022-08-09T18:48:32.684Z,52.10
2022-08-09T18:51:01.384Z,52.50
2022-08-09T18:54:00.972Z,52.60
2022-08-09T18:56:17.104Z,52.80
2022-08-09T18:58:47.728Z,52.80
2022-08-09T19:01:22.864Z,53.00
2022-08-09T19:04:01.858Z,53.60
2022-08-09T19:06:34.640Z,53.60
2022-08-09T19:09:05.259Z,54.00
2022-08-09T19:11:37.606Z,54.20
2022-08-09T19:14:06.891Z,54.30
2022-08-09T19:16:37.841Z,54.50
2022-08-09T19:19:19.235Z,55.10
2022-08-09T19:22:04.546Z,55.70
2022-08-09T19:24:39.725Z,56.50
2022-08-09T19:27:21.915Z,57.00
2022-08-09T19:30:21.589Z,57.50
2022-08-09T19:32:37.101Z,57.70
2022-08-09T19:35:05.467Z,57.70
2022-08-09T19:37:54.033Z,58.10
2022-08-09T19:40:21.269Z,58.40
2022-08-09T19:42:49.648Z,58.70
2022-08-09T19:45:18.585Z,58.60
2022-08-09T19:47:45.907Z,58.40
2022-08-09T19:50:51.006Z,58.20
2022-08-09T19:53:04.009Z,58.10
2022-08-09T19:56:03.476Z,58.00
2022-08-09T19:58:30.193Z,57.70
2022-08-09T20:00:58.426Z,58.00
2022-08-09T20:04:18.583Z,58.70
2022-08-09T20:06:23.909Z,59.00
2022-08-09T20:08:57.706Z,58.80
2022-08-09T20:11:42.902Z,59.10
2022-08-09T20:14:15.175Z,59.70
2022-08-09T20:16:49.944Z,59.60
2022-08-09T20:19:42.234Z,59.70
2022-08-09T20:22:10.253Z,59.90
2022-08-09T20:24:42.390Z,60.10
2022-08-09T20:27:11.671Z,60.30
2022-08-09T20:29:41.157Z,60.50
2022-08-09T20:32:31.022Z,61.00
2022-08-09T20:34:59.294Z,61.60
2022-08-09T20:38:18.594Z,62.00
2022-08-09T20:40:18.393Z,62.50
2022-08-09T20:42:59.425Z,62.80
2022-08-09T20:45:59.070Z,63.00
2022-08-09T20:48:15.804Z,63.10
2022-08-09T20:50:51.153Z,63.00
2022-08-09T20:53:37.095Z,63.00
2022-08-09T20:56:20.517Z,63.00
2022-08-09T20:58:50.484Z,62.70
2022-08-09T21:01:34.696Z,62.60
2022-08-09T21:05:54.481Z,62.60
2022-08-09T21:06:56.624Z,62.60
2022-08-09T21:09:32.608Z,62.40
2022-08-09T21:14:41.809Z,62.40
2022-08-09T21:18:21.642Z,62.00
2022-08-09T21:20:17.721Z,61.90
2022-08-09T21:22:52.706Z,61.60
2022-08-09T21:25:44.461Z,61.50
2022-08-09T21:28:34.247Z,61.40
2022-08-09T21:31:17.186Z,61.40
2022-08-09T21:33:52.384Z,61.60
2022-08-09T21:36:28.158Z,61.40
2022-08-09T21:39:00.030Z,61.30
2022-08-09T21:42:04.827Z,61.60
2022-08-09T21:44:34.197Z,61.80
2022-08-09T21:47:09.737Z,62.00
2022-08-09T21:49:39.589Z,62.00
2022-08-09T21:52:17.584Z,62.00
2022-08-09T21:55:03.427Z,62.10
2022-08-09T21:57:39.560Z,62.40
2022-08-09T22:00:33.232Z,63.30
2022-08-09T22:03:07.047Z,63.10
2022-08-09T22:05:37.407Z,63.40
2022-08-09T22:08:14.680Z,63.70
2022-08-09T22:11:05.129Z,63.80
2022-08-09T22:13:36.659Z,63.90
2022-08-09T22:16:07.562Z,63.90
2022-08-09T22:18:53.236Z,63.90
2022-08-09T22:21:24.820Z,64.10
2022-08-09T22:23:59.847Z,64.30
2022-08-09T22:26:38.102Z,64.50
2022-08-09T22:29:09.205Z,64.70
2022-08-09T22:31:50.357Z,64.80
2022-08-09T22:34:26.307Z,64.90
2022-08-09T22:36:59.138Z,64.90
2022-08-09T22:39:57.501Z,64.70
2022-08-09T22:42:21.430Z,64.40
2022-08-09T22:45:18.472Z,64.20
2022-08-09T22:48:17.011Z,64.30
2022-08-09T22:50:31.644Z,64.30
2022-08-09T22:53:03.506Z,64.40
2022-08-09T22:56:06.679Z,64.80
2022-08-09T22:58:20.433Z,64.90
2022-08-09T23:01:05.644Z,64.90
2022-08-09T23:04:05.783Z,65.00
2022-08-09T23:06:35.005Z,65.10
2022-08-09T23:09:05.009Z,65.40
2022-08-09T23:11:32.473Z,65.60
2022-08-09T23:14:00.907Z,65.80
2022-08-09T23:16:28.162Z,66.30
2022-08-09T23:18:55.357Z,66.70
2022-08-09T23:21:25.314Z,67.20
2022-08-09T23:24:05.181Z,67.40
2022-08-09T23:26:37.185Z,67.70
2022-08-09T23:29:06.165Z,68.00
2022-08-09T23:31:34.258Z,68.20
2022-08-09T23:34:04.691Z,68.30
2022-08-09T23:36:32.665Z,68.40
2022-08-09T23:39:00.239Z,68.60
2022-08-09T23:41:29.496Z,68.80
2022-08-09T23:44:01.707Z,68.90
2022-08-09T23:46:30.511Z,69.40
2022-08-09T23:48:59.328Z,69.50
2022-08-09T23:51:27.445Z,69.60
2022-08-09T23:54:03.249Z,69.80
2022-08-09T23:56:52.029Z,70.00
2022-08-09T23:59:20.836Z,69.60
